createdAt,value
2017-05-16T00:01:02.744Z,102342.14
2017-05-16T00:03:30.264Z,102335.73
2017-05-16T00:05:57.828Z,102338.80
2017-05-16T00:08:25.349Z,102336.58
2017-05-16T00:10:54.061Z,102339.08
2017-05-16T00:13:21.676Z,102335.05
2017-05-16T00:15:49.170Z,102341.69
2017-05-16T00:18:16.745Z,102341.41
2017-05-16T00:20:44.269Z,102333.30
2017-05-16T00:23:11.835Z,102342.64
2017-05-16T00:25:39.344Z,102333.41
2017-05-16T00:28:07.984Z,102334.08
2017-05-16T00:30:35.483Z,102333.14
2017-05-16T00:33:03.028Z,102331.92
2017-05-16T00:35:30.596Z,102325.27
2017-05-16T00:37:58.103Z,102330.84
2017-05-16T00:40:25.659Z,102325.65
2017-05-16T00:42:53.171Z,102328.92
2017-05-16T00:45:20.751Z,102323.91
2017-05-16T00:47:48.315Z,102321.47
2017-05-16T00:50:16.011Z,102321.86
2017-05-16T00:52:43.519Z,102317.92
2017-05-16T00:55:11.043Z,102320.36
2017-05-16T00:57:38.708Z,102311.13
2017-05-16T01:00:06.260Z,102310.05
2017-05-16T01:02:33.940Z,102310.05
2017-05-16T01:05:01.456Z,102312.34
2017-05-16T01:07:28.975Z,102308.13
2017-05-16T01:09:56.607Z,102309.53
2017-05-16T01:12:24.143Z,102310.89
2017-05-16T01:14:51.702Z,102316.98
2017-05-16T01:17:19.232Z,102313.05
2017-05-16T01:19:46.944Z,102310.89
2017-05-16T01:22:14.568Z,102311.72
2017-05-16T01:24:42.091Z,102304.52
2017-05-16T01:27:09.979Z,102307.91
2017-05-16T01:29:37.497Z,102300.04
2017-05-16T01:32:05.023Z,102298.13
2017-05-16T01:34:32.677Z,102294.47
2017-05-16T01:37:00.192Z,102293.78
2017-05-16T01:39:27.910Z,102291.20
2017-05-16T01:41:55.444Z,102292.59
2017-05-16T01:44:22.961Z,102295.16
2017-05-16T01:46:50.517Z,102288.65
2017-05-16T01:49:18.027Z,102295.56
2017-05-16T01:51:45.595Z,102287.42
2017-05-16T01:54:13.127Z,102284.44
2017-05-16T01:56:40.830Z,102289.86
2017-05-16T01:59:08.352Z,102290.39
2017-05-16T02:01:35.872Z,102285.53
2017-05-16T02:04:03.475Z,102285.14
2017-05-16T02:06:30.987Z,102285.39
2017-05-16T02:08:58.668Z,102281.04
2017-05-16T02:11:26.197Z,102280.13
2017-05-16T02:13:53.732Z,102282.81
2017-05-16T02:16:21.300Z,102277.52
2017-05-16T02:18:48.833Z,102275.50
2017-05-16T02:21:16.395Z,102276.73
2017-05-16T02:23:43.941Z,102275.11
2017-05-16T02:26:11.492Z,102274.67
2017-05-16T02:28:39.050Z,102272.37
2017-05-16T02:31:06.782Z,102281.19
2017-05-16T02:33:34.339Z,102277.53
2017-05-16T02:36:01.856Z,102284.59
2017-05-16T02:38:29.408Z,102282.97
2017-05-16T02:40:56.924Z,102279.42
2017-05-16T02:43:24.637Z,102285.67
2017-05-16T02:45:52.163Z,102282.69
2017-05-16T02:48:19.676Z,102285.39
2017-05-16T02:50:47.257Z,102289.45
2017-05-16T02:53:14.772Z,102289.19
2017-05-16T02:55:42.679Z,102283.92
2017-05-16T02:58:10.206Z,102285.12
2017-05-16T03:00:37.715Z,102284.32
2017-05-16T03:03:05.268Z,102280.39
2017-05-16T03:05:32.783Z,102277.39
2017-05-16T03:08:00.356Z,102280.94
2017-05-16T03:10:27.863Z,102276.44
2017-05-16T03:12:55.524Z,102275.50
2017-05-16T03:15:23.051Z,102275.38
2017-05-16T03:17:50.571Z,102279.03
2017-05-16T03:20:18.119Z,102275.76
2017-05-16T03:22:45.672Z,102279.70
2017-05-16T03:25:13.295Z,102283.23
2017-05-16T03:27:40.809Z,102277.52
2017-05-16T03:30:08.380Z,102277.80
2017-05-16T03:32:35.905Z,102277.25
2017-05-16T03:35:03.620Z,102278.88
2017-05-16T03:37:31.149Z,102278.77
2017-05-16T03:39:58.723Z,102283.22
2017-05-16T03:42:26.327Z,102289.86
2017-05-16T03:44:53.856Z,102282.28
2017-05-16T03:47:21.755Z,102292.72
2017-05-16T03:49:49.269Z,102291.77
2017-05-16T03:52:16.791Z,102281.48
2017-05-16T03:54:44.340Z,102282.15
2017-05-16T03:57:11.844Z,102288.64
2017-05-16T03:59:39.396Z,102290.41
2017-05-16T04:02:06.916Z,102287.17
2017-05-16T04:04:34.464Z,102281.59
2017-05-16T04:07:01.980Z,102282.68
2017-05-16T04:09:29.655Z,102279.83
2017-05-16T04:11:57.180Z,102284.86
2017-05-16T04:14:24.705Z,102291.50
2017-05-16T04:16:52.256Z,102287.83
2017-05-16T04:19:19.800Z,102283.23
2017-05-16T04:21:47.355Z,102295.56
2017-05-16T04:24:14.907Z,102292.17
2017-05-16T04:26:42.580Z,102291.49
2017-05-16T04:29:10.130Z,102294.47
2017-05-16T04:31:37.646Z,102299.34
2017-05-16T04:34:05.212Z,102296.65
2017-05-16T04:36:32.741Z,102297.06
2017-05-16T04:39:00.296Z,102300.70
2017-05-16T04:41:27.804Z,102297.86
2017-05-16T04:43:55.353Z,102301.94
2017-05-16T04:46:22.877Z,102293.39
2017-05-16T04:48:50.423Z,102293.41
2017-05-16T04:51:17.940Z,102300.85
2017-05-16T04:53:45.653Z,102296.77
2017-05-16T04:56:13.171Z,102301.87
2017-05-16T04:58:40.711Z,102299.06
2017-05-16T05:01:08.290Z,102302.22
2017-05-16T05:03:35.804Z,102295.70
2017-05-16T05:06:03.361Z,102297.20
2017-05-16T05:08:30.867Z,102296.79
2017-05-16T05:10:58.424Z,102301.80
2017-05-16T05:13:26.060Z,102301.81
2017-05-16T05:15:53.747Z,102301.27
2017-05-16T05:18:21.311Z,102305.59
2017-05-16T05:20:48.876Z,102305.20
2017-05-16T05:23:16.461Z,102300.45
2017-05-16T05:25:44.096Z,102304.00
2017-05-16T05:28:11.650Z,102298.69
2017-05-16T05:30:39.185Z,102301.14
2017-05-16T05:33:06.913Z,102303.42
2017-05-16T05:35:34.485Z,102310.63
2017-05-16T05:38:02.000Z,102314.30
2017-05-16T05:40:29.560Z,102318.64
2017-05-16T05:42:57.077Z,102320.38
2017-05-16T05:45:24.635Z,102327.72
2017-05-16T05:47:52.218Z,102330.83
2017-05-16T05:50:19.963Z,102330.16
2017-05-16T05:52:47.510Z,102327.45
2017-05-16T05:55:15.163Z,102329.47
2017-05-16T05:57:42.732Z,102326.76
2017-05-16T06:00:10.313Z,102330.71
2017-05-16T06:05:14.220Z,102330.30
2017-05-16T06:07:42.333Z,102329.91
2017-05-16T06:10:09.850Z,102329.48
2017-05-16T06:12:37.374Z,102322.16
2017-05-16T06:15:04.983Z,102322.82
2017-05-16T06:17:32.515Z,102325.54
2017-05-16T06:20:00.063Z,102321.89
2017-05-16T06:22:27.585Z,102321.75
2017-05-16T06:24:55.159Z,102324.19
2017-05-16T06:27:22.696Z,102324.05
2017-05-16T06:29:50.347Z,102324.75
2017-05-16T06:32:17.900Z,102327.70
2017-05-16T06:34:45.443Z,102323.39
2017-05-16T06:37:13.029Z,102328.81
2017-05-16T06:39:40.560Z,102332.20
2017-05-16T06:42:08.251Z,102328.95
2017-05-16T06:44:35.780Z,102332.05
2017-05-16T06:47:03.291Z,102334.77
2017-05-16T06:49:30.849Z,102335.28
2017-05-16T06:51:58.369Z,102329.02
2017-05-16T06:54:25.927Z,102332.64
2017-05-16T06:56:53.470Z,102330.44
2017-05-16T06:59:21.024Z,102330.56
2017-05-16T07:01:48.540Z,102333.22
2017-05-16T07:04:16.218Z,102329.38
2017-05-16T07:06:43.764Z,102333.15
2017-05-16T07:09:11.300Z,102341.84
2017-05-16T07:11:38.902Z,102347.20
2017-05-16T07:14:06.448Z,102345.72
2017-05-16T07:16:34.017Z,102339.73
2017-05-16T07:19:01.565Z,102338.73
2017-05-16T07:21:29.240Z,102344.16
2017-05-16T07:23:56.761Z,102345.88
2017-05-16T07:26:24.277Z,102343.27
2017-05-16T07:28:51.836Z,102344.89
2017-05-16T07:31:19.359Z,102341.49
2017-05-16T07:33:46.934Z,102333.77
2017-05-16T07:36:14.483Z,102336.88
2017-05-16T07:38:42.175Z,102337.16
2017-05-16T07:41:09.699Z,102337.97
2017-05-16T07:43:37.247Z,102325.45
2017-05-16T07:46:04.799Z,102328.48
2017-05-16T07:48:32.362Z,102328.83
2017-05-16T07:51:00.069Z,102320.84
2017-05-16T07:53:27.596Z,102327.19
2017-05-16T07:55:55.117Z,102323.70
2017-05-16T07:58:22.680Z,102327.30
2017-05-16T08:00:50.196Z,102329.27
2017-05-16T08:03:17.754Z,102321.56
2017-05-16T08:05:45.276Z,102319.67
2017-05-16T08:08:12.833Z,102321.16
2017-05-16T08:10:40.389Z,102321.67
2017-05-16T08:13:08.057Z,102321.44
2017-05-16T08:15:35.580Z,102317.61
2017-05-16T08:18:03.101Z,102321.77
2017-05-16T08:20:30.680Z,102321.35
2017-05-16T08:22:58.239Z,102314.39
2017-05-16T08:25:25.828Z,102308.88
2017-05-16T08:27:53.349Z,102303.84
2017-05-16T08:30:20.871Z,102306.30
2017-05-16T08:32:48.537Z,102298.52
2017-05-16T08:35:16.156Z,102299.80
2017-05-16T08:37:43.804Z,102299.88
2017-05-16T08:40:11.328Z,102293.33
2017-05-16T08:42:39.070Z,102298.14
2017-05-16T08:45:06.599Z,102293.08
2017-05-16T08:47:34.114Z,102297.79
2017-05-16T08:50:01.705Z,102290.37
2017-05-16T08:52:29.243Z,102291.09
2017-05-16T08:54:56.812Z,102291.70
2017-05-16T08:57:24.328Z,102293.91
2017-05-16T08:59:52.079Z,102294.63
2017-05-16T09:02:19.643Z,102293.38
2017-05-16T09:04:47.221Z,102284.70
2017-05-16T09:07:15.097Z,102290.13
2017-05-16T09:09:42.600Z,102290.92
2017-05-16T09:12:10.160Z,102288.00
2017-05-16T09:14:37.680Z,102292.45
2017-05-16T09:17:05.258Z,102290.36
2017-05-16T09:19:32.789Z,102279.97
2017-05-16T09:22:00.685Z,102276.63
2017-05-16T09:24:28.221Z,102279.68
2017-05-16T09:26:55.759Z,102280.86
2017-05-16T09:29:23.422Z,102271.97
2017-05-16T09:31:50.969Z,102276.07
2017-05-16T09:34:18.544Z,102279.05
2017-05-16T09:36:46.065Z,102272.75
2017-05-16T09:39:13.600Z,102271.48
2017-05-16T09:41:41.167Z,102273.13
2017-05-16T09:44:08.685Z,102268.13
2017-05-16T09:46:36.248Z,102272.92
2017-05-16T09:49:03.802Z,102262.00
2017-05-16T09:51:31.474Z,102262.28
2017-05-16T09:53:59.057Z,102263.48
2017-05-16T09:56:26.587Z,102257.98
2017-05-16T09:58:54.152Z,102261.05
2017-05-16T10:01:21.742Z,102260.74
2017-05-16T10:03:49.402Z,102256.21
2017-05-16T10:06:16.922Z,102259.53
2017-05-16T10:08:44.480Z,102259.88
2017-05-16T10:11:12.024Z,102257.66
2017-05-16T10:13:39.591Z,102245.36
2017-05-16T10:16:07.121Z,102249.70
2017-05-16T10:18:34.635Z,102250.30
2017-05-16T10:21:02.216Z,102253.84
2017-05-16T10:23:29.730Z,102244.70
2017-05-16T10:25:57.439Z,102251.44
2017-05-16T10:28:24.995Z,102239.72
2017-05-16T10:30:52.872Z,102241.38
2017-05-16T10:33:20.483Z,102238.46
2017-05-16T10:38:14.665Z,102233.47
2017-05-16T10:40:42.228Z,102228.08
2017-05-16T10:43:10.189Z,102237.22
2017-05-16T10:45:37.714Z,102222.34
2017-05-16T10:48:05.240Z,102225.02
2017-05-16T10:50:32.811Z,102228.09
2017-05-16T10:53:00.324Z,102229.73
2017-05-16T10:55:27.895Z,102218.91
2017-05-16T10:57:55.432Z,102214.06
2017-05-16T11:00:23.155Z,102220.89
2017-05-16T11:02:50.682Z,102217.23
2017-05-16T11:05:18.228Z,102221.47
2017-05-16T11:07:45.912Z,102214.09
2017-05-16T11:10:13.420Z,102209.95
2017-05-16T11:12:40.955Z,102211.61
2017-05-16T11:15:08.509Z,102206.19
2017-05-16T11:17:36.185Z,102206.69
2017-05-16T11:20:03.722Z,102199.31
2017-05-16T11:22:31.271Z,102196.34
2017-05-16T11:24:58.907Z,102203.65
2017-05-16T11:27:26.423Z,102202.96
2017-05-16T11:29:54.093Z,102199.02
2017-05-16T11:32:21.631Z,102185.59
2017-05-16T11:34:49.227Z,102190.08
2017-05-16T11:37:16.847Z,102184.91
2017-05-16T11:39:44.388Z,102183.47
2017-05-16T11:42:12.107Z,102177.48
2017-05-16T11:44:39.632Z,102165.59
2017-05-16T11:47:07.156Z,102172.08
2017-05-16T11:49:34.721Z,102169.90
2017-05-16T11:52:02.236Z,102170.79
2017-05-16T11:54:29.788Z,102161.20
2017-05-16T11:56:57.300Z,102167.64
2017-05-16T11:59:24.825Z,102160.83
2017-05-16T12:01:52.375Z,102160.09
2017-05-16T12:04:19.887Z,102159.80
2017-05-16T12:06:47.447Z,102156.07
2017-05-16T12:09:14.970Z,102153.13
2017-05-16T12:11:42.625Z,102154.78
2017-05-16T12:14:10.169Z,102148.17
2017-05-16T12:16:37.697Z,102141.97
2017-05-16T12:19:05.256Z,102140.31
2017-05-16T12:21:32.776Z,102141.27
2017-05-16T12:24:00.623Z,102137.59
2017-05-16T12:26:28.162Z,102138.95
2017-05-16T12:28:55.669Z,102134.03
2017-05-16T12:31:23.220Z,102132.80
2017-05-16T12:33:50.752Z,102135.81
2017-05-16T12:36:18.311Z,102124.50
2017-05-16T12:38:45.834Z,102125.41
2017-05-16T12:41:13.495Z,102130.81
2017-05-16T12:43:41.016Z,102125.89
2017-05-16T12:46:08.550Z,102126.09
2017-05-16T12:48:36.113Z,102114.73
2017-05-16T12:51:03.645Z,102116.33
2017-05-16T12:53:31.213Z,102115.80
2017-05-16T12:55:58.727Z,102106.98
2017-05-16T12:58:26.327Z,102108.88
2017-05-16T13:00:53.861Z,102106.77
2017-05-16T13:03:21.455Z,102114.97
2017-05-16T13:05:48.977Z,102115.52
2017-05-16T13:08:16.832Z,102103.39
2017-05-16T13:10:44.358Z,102104.64
2017-05-16T13:13:11.872Z,102104.14
2017-05-16T13:15:39.488Z,102102.27
2017-05-16T13:18:07.007Z,102100.45
2017-05-16T13:20:34.632Z,102097.68
2017-05-16T13:23:02.140Z,102095.34
2017-05-16T13:25:29.820Z,102092.43
2017-05-16T13:27:57.416Z,102096.13
2017-05-16T13:30:24.960Z,102092.64
2017-05-16T13:32:52.576Z,102090.98
2017-05-16T13:35:20.060Z,102085.15
2017-05-16T13:37:47.936Z,102084.59
2017-05-16T13:40:15.468Z,102081.78
2017-05-16T13:42:42.999Z,102084.72
2017-05-16T13:45:10.547Z,102084.94
2017-05-16T13:47:38.069Z,102076.90
2017-05-16T13:50:05.625Z,102075.92
2017-05-16T13:52:33.218Z,102073.41
2017-05-16T13:55:00.991Z,102068.58
2017-05-16T13:57:28.512Z,102067.64
2017-05-16T13:59:56.042Z,102067.42
2017-05-16T14:02:23.611Z,102067.52
2017-05-16T14:04:51.151Z,102067.13
2017-05-16T14:07:18.717Z,102063.50
2017-05-16T14:09:46.237Z,102059.73
2017-05-16T14:12:13.904Z,102060.02
2017-05-16T14:14:41.427Z,102062.30
2017-05-16T14:17:09.014Z,102057.24
2017-05-16T14:19:36.685Z,102051.56
2017-05-16T14:22:04.260Z,102046.98
2017-05-16T14:24:31.992Z,102041.72
2017-05-16T14:26:59.509Z,102036.77
2017-05-16T14:29:27.094Z,102038.12
2017-05-16T14:31:54.662Z,102035.77
2017-05-16T14:34:22.188Z,102034.16
2017-05-16T14:36:50.095Z,102038.98
2017-05-16T14:39:17.620Z,102036.73
2017-05-16T14:41:45.156Z,102039.50
2017-05-16T14:44:12.711Z,102041.38
2017-05-16T14:46:40.228Z,102043.42
2017-05-16T14:49:07.898Z,102037.49
2017-05-16T14:51:35.432Z,102028.99
2017-05-16T14:54:02.974Z,102031.05
2017-05-16T14:56:30.545Z,102034.71
2017-05-16T14:58:58.122Z,102023.50
2017-05-16T15:01:25.721Z,102026.15
2017-05-16T15:03:53.246Z,102018.55
2017-05-16T15:06:20.965Z,102016.16
2017-05-16T15:08:48.508Z,102021.98
2017-05-16T15:11:16.072Z,102017.89
2017-05-16T15:13:43.695Z,102023.13
2017-05-16T15:16:11.231Z,102021.82
2017-05-16T15:18:38.918Z,102024.50
2017-05-16T15:21:06.458Z,102021.00
2017-05-16T15:23:34.031Z,102013.76
2017-05-16T15:26:01.583Z,102015.69
2017-05-16T15:28:29.746Z,102007.13
2017-05-16T15:30:57.748Z,102005.48
2017-05-16T15:33:25.350Z,102008.91
2017-05-16T15:35:52.883Z,102002.70
2017-05-16T15:38:20.974Z,102003.42
2017-05-16T15:40:48.484Z,102005.61
2017-05-16T15:43:16.068Z,102004.22
2017-05-16T15:45:43.580Z,102002.63
2017-05-16T15:48:11.432Z,101998.78
2017-05-16T15:50:38.977Z,101997.58
2017-05-16T15:53:06.503Z,101996.45
2017-05-16T15:55:34.089Z,102004.91
2017-05-16T15:58:01.610Z,101998.01
2017-05-16T16:00:29.199Z,101994.47
2017-05-16T16:02:56.727Z,101997.92
2017-05-16T16:05:24.589Z,101993.70
2017-05-16T16:07:52.126Z,101992.22
2017-05-16T16:10:19.655Z,101990.02
2017-05-16T16:12:47.204Z,101992.17
2017-05-16T16:15:14.749Z,101990.22
2017-05-16T16:17:42.540Z,101995.48
2017-05-16T16:20:10.080Z,101988.01
2017-05-16T16:22:37.600Z,101987.02
2017-05-16T16:25:05.171Z,101990.68
2017-05-16T16:27:32.732Z,101988.40
2017-05-16T16:30:00.293Z,101989.31
2017-05-16T16:32:27.807Z,101986.46
2017-05-16T16:34:55.472Z,101984.67
2017-05-16T16:37:23.039Z,101991.08
2017-05-16T16:39:50.562Z,101984.91
2017-05-16T16:42:18.126Z,101979.92
2017-05-16T16:44:45.636Z,101986.13
2017-05-16T16:47:13.211Z,101977.18
2017-05-16T16:49:40.728Z,101976.36
2017-05-16T16:52:08.409Z,101976.30
2017-05-16T16:54:35.935Z,101973.03
2017-05-16T16:57:03.478Z,101976.83
2017-05-16T16:59:31.108Z,101979.33
2017-05-16T17:01:58.655Z,101970.70
2017-05-16T17:04:26.335Z,101966.28
2017-05-16T17:06:53.912Z,101969.03
2017-05-16T17:09:21.444Z,101970.39
2017-05-16T17:11:48.989Z,101970.86
2017-05-16T17:14:16.499Z,101968.32
2017-05-16T17:16:44.523Z,101966.90
2017-05-16T17:19:12.042Z,101967.27
2017-05-16T17:21:39.795Z,101968.52
2017-05-16T17:24:07.331Z,101972.58
2017-05-16T17:26:34.856Z,101977.61
2017-05-16T17:29:02.414Z,101977.84
2017-05-16T17:31:29.935Z,101975.27
2017-05-16T17:33:57.798Z,101977.05
2017-05-16T17:36:25.574Z,101973.16
2017-05-16T17:38:53.155Z,101970.11
2017-05-16T17:41:20.748Z,101974.17
2017-05-16T17:43:48.282Z,101972.95
2017-05-16T17:46:15.838Z,101972.94
2017-05-16T17:48:43.392Z,101973.25
2017-05-16T17:51:11.053Z,101979.21
2017-05-16T17:53:38.660Z,101974.94
2017-05-16T17:56:06.200Z,101976.25
2017-05-16T17:58:33.800Z,101969.19
2017-05-16T18:01:01.327Z,101967.34
2017-05-16T18:03:28.890Z,101969.92
2017-05-16T18:05:56.412Z,101970.31
2017-05-16T18:08:23.979Z,101968.44
2017-05-16T18:10:51.627Z,101971.55
2017-05-16T18:13:19.263Z,101972.28
2017-05-16T18:15:46.841Z,101968.02
2017-05-16T18:18:14.407Z,101972.53
2017-05-16T18:20:42.003Z,101975.36
2017-05-16T18:23:09.565Z,101971.36
2017-05-16T18:25:37.135Z,101968.72
2017-05-16T18:28:04.714Z,101971.92
2017-05-16T18:30:32.426Z,101973.19
2017-05-16T18:32:59.944Z,101972.84
2017-05-16T18:35:27.479Z,101971.37
2017-05-16T18:37:55.019Z,101973.81
2017-05-16T18:40:22.536Z,101976.66
2017-05-16T18:42:50.144Z,101981.28
2017-05-16T18:45:17.665Z,101984.27
2017-05-16T18:47:45.230Z,101987.04
2017-05-16T18:50:12.758Z,101987.33
2017-05-16T18:52:40.418Z,101991.61
2017-05-16T18:55:07.944Z,101987.58
2017-05-16T18:57:35.475Z,101983.97
2017-05-16T19:00:03.051Z,101986.80
2017-05-16T19:02:30.582Z,101985.69
2017-05-16T19:04:58.267Z,101985.83
2017-05-16T19:07:25.791Z,101991.08
2017-05-16T19:09:53.323Z,101986.59
2017-05-16T19:12:20.877Z,101990.47
2017-05-16T19:14:48.400Z,101991.28
2017-05-16T19:17:16.053Z,101987.98
2017-05-16T19:19:43.634Z,101987.69
2017-05-16T19:22:11.195Z,101989.67
2017-05-16T19:24:38.776Z,101987.27
2017-05-16T19:27:06.315Z,101992.83
2017-05-16T19:29:34.071Z,101992.30
2017-05-16T19:32:01.592Z,101993.23
2017-05-16T19:34:29.104Z,101990.77
2017-05-16T19:36:56.667Z,101994.03
2017-05-16T19:39:24.240Z,101996.77
2017-05-16T19:41:51.787Z,101997.83
2017-05-16T19:44:19.377Z,101995.45
2017-05-16T19:46:47.192Z,102004.66
2017-05-16T19:49:14.744Z,102002.73
2017-05-16T19:51:42.279Z,102005.24
2017-05-16T19:54:09.941Z,102000.80
2017-05-16T19:56:37.478Z,102006.28
2017-05-16T19:59:05.039Z,102006.28
2017-05-16T20:01:32.584Z,102002.22
2017-05-16T20:04:00.148Z,102008.77
2017-05-16T20:06:27.688Z,102000.49
2017-05-16T20:08:55.431Z,102006.61
2017-05-16T20:11:22.940Z,102005.06
2017-05-16T20:13:50.451Z,102005.02
2017-05-16T20:16:18.003Z,102003.91
2017-05-16T20:18:45.547Z,102006.93
2017-05-16T20:21:13.135Z,101998.72
2017-05-16T20:23:40.669Z,102005.11
2017-05-16T20:26:08.487Z,102005.98
2017-05-16T20:28:36.068Z,102001.64
2017-05-16T20:31:03.627Z,102009.87
2017-05-16T20:33:31.274Z,102004.84
2017-05-16T20:35:58.804Z,102006.81
2017-05-16T20:38:26.440Z,102003.89
2017-05-16T20:40:53.980Z,102002.37
2017-05-16T20:43:21.865Z,102010.59
2017-05-16T20:48:16.178Z,102001.14
2017-05-16T20:50:44.033Z,102003.23
2017-05-16T20:53:11.586Z,101997.77
2017-05-16T20:55:39.126Z,101998.17
2017-05-16T20:58:06.667Z,101996.23
2017-05-16T21:00:34.193Z,101995.99
2017-05-16T21:03:01.741Z,101999.55
2017-05-16T21:05:29.269Z,101996.17
2017-05-16T21:07:56.840Z,102001.56
2017-05-16T21:10:24.372Z,101996.84
2017-05-16T21:12:51.899Z,101997.09
2017-05-16T21:15:19.456Z,101993.36
2017-05-16T21:17:46.971Z,101994.26
2017-05-16T21:20:14.851Z,101996.02
2017-05-16T21:22:42.360Z,101991.44
2017-05-16T21:25:09.884Z,101993.84
2017-05-16T21:27:37.436Z,101996.75
2017-05-16T21:30:04.948Z,101993.92
2017-05-16T21:32:32.512Z,101998.09
2017-05-16T21:35:00.025Z,101998.50
2017-05-16T21:37:27.570Z,101996.28
2017-05-16T21:39:55.103Z,101997.19
2017-05-16T21:42:23.176Z,101993.08
2017-05-16T21:44:50.688Z,101996.63
2017-05-16T21:47:18.207Z,101999.22
2017-05-16T21:49:45.759Z,101994.77
2017-05-16T21:52:13.289Z,101995.81
2017-05-16T21:54:41.192Z,101995.16
2017-05-16T21:57:08.758Z,101997.34
2017-05-16T21:59:36.279Z,101999.83
2017-05-16T22:02:03.966Z,101994.03
2017-05-16T22:04:31.477Z,101987.16
2017-05-16T22:06:58.989Z,101990.56
2017-05-16T22:09:26.532Z,101991.11
2017-05-16T22:11:54.063Z,101997.41
2017-05-16T22:14:21.632Z,101992.58
2017-05-16T22:16:49.179Z,101988.63
2017-05-16T22:19:16.925Z,101988.38
2017-05-16T22:21:44.503Z,101988.86
2017-05-16T22:24:12.015Z,101988.93
2017-05-16T22:26:39.580Z,101984.80
2017-05-16T22:29:07.100Z,101982.31
2017-05-16T22:31:34.654Z,101979.33
2017-05-16T22:34:02.184Z,101973.55
2017-05-16T22:36:29.756Z,101984.19
2017-05-16T22:38:57.307Z,101981.67
2017-05-16T22:41:24.923Z,101981.97
2017-05-16T22:43:52.660Z,101978.25
2017-05-16T22:46:20.188Z,101975.52
2017-05-16T22:48:47.787Z,101977.09
2017-05-16T22:51:15.363Z,101969.15
2017-05-16T22:53:42.871Z,101971.20
2017-05-16T22:56:10.432Z,101961.92
2017-05-16T22:58:37.959Z,101968.09
2017-05-16T23:01:05.693Z,101963.27
2017-05-16T23:03:33.207Z,101963.58
2017-05-16T23:06:00.745Z,101959.38
2017-05-16T23:08:28.329Z,101963.17
2017-05-16T23:10:55.864Z,101960.50
2017-05-16T23:13:23.636Z,101952.27
2017-05-16T23:15:51.244Z,101947.66
2017-05-16T23:18:18.761Z,101945.52
2017-05-16T23:20:46.319Z,101939.07
2017-05-16T23:23:13.917Z,101943.17
2017-05-16T23:25:41.721Z,101937.98
2017-05-16T23:28:09.234Z,101933.47
2017-05-16T23:30:36.786Z,101938.75
2017-05-16T23:33:04.365Z,101932.61
2017-05-16T23:35:31.904Z,101940.08
2017-05-16T23:37:59.487Z,101931.63
2017-05-16T23:40:27.174Z,101928.00
2017-05-16T23:42:54.740Z,101933.66
2017-05-16T23:45:22.308Z,101934.67
2017-05-16T23:47:49.836Z,101928.09
2017-05-16T23:50:17.391Z,101928.98
2017-05-16T23:52:45.045Z,101926.31
2017-05-16T23:55:12.597Z,101924.95
2017-05-16T23:57:40.202Z,101915.70
